Time;durP1;ratioP1;P1;durP2;ratioP2;P2;SDS_P1;SDS_P2;PMS_P1;PMS_P2;Temp;Humidity;BMP_temperature;BMP_pressure;BME280_temperature;BME280_humidity;BME280_pressure;Samples;Min_cycle;Max_cycle;Signal;HPM_P1;HPM_P2
2021/12/20 00:00:03;;;;;;;3.30;1.63;;;;;;;;;;5093794;28;20354;-74
2021/12/20 00:02:29;;;;;;;3.42;1.52;;;;;;;;;;5093815;28;20032;-71
2021/12/20 00:04:55;;;;;;;4.40;1.85;;;;;;;;;;5093775;28;20052;-71
2021/12/20 00:07:21;;;;;;;2.90;1.30;;;;;;;;;;5093768;28;20562;-71
2021/12/20 00:09:47;;;;;;;3.13;1.80;;;;;;;;;;5093678;28;20489;-73
2021/12/20 00:12:13;;;;;;;4.03;1.50;;;;;;;;;;5092326;28;20024;-70
2021/12/20 00:14:39;;;;;;;3.42;1.40;;;;;;;;;;5093481;28;20075;-75
2021/12/20 00:17:05;;;;;;;4.88;1.30;;;;;;;;;;5093514;28;20035;-68
2021/12/20 00:19:31;;;;;;;3.03;1.58;;;;;;;;;;5093647;28;20024;-71
2021/12/20 00:21:57;;;;;;;3.25;1.55;;;;;;;;;;5093600;28;20035;-71
2021/12/20 00:24:23;;;;;;;2.45;1.23;;;;;;;;;;5091905;28;20468;-65
2021/12/20 00:26:49;;;;;;;3.63;1.27;;;;;;;;;;5092064;28;20502;-69
2021/12/20 00:29:15;;;;;;;3.05;1.30;;;;;;;;;;5093368;28;20016;-71
2021/12/20 00:31:41;;;;;;;3.53;1.83;;;;;;;;;;5093493;28;20103;-75
2021/12/20 00:34:08;;;;;;;3.33;1.30;;;;;;;;;;5093341;28;20028;-68
2021/12/20 00:36:34;;;;;;;4.45;1.52;;;;;;;;;;5093197;28;20032;-77
2021/12/20 00:41:45;;;;;;;3.60;1.35;;;;;;;;;;5093242;28;20043;-71
2021/12/20 00:44:11;;;;;;;3.53;1.70;;;;;;;;;;5093090;28;20027;-78
2021/12/20 00:46:37;;;;;;;3.42;1.38;;;;;;;;;;5093284;28;20050;-71
2021/12/20 00:49:03;;;;;;;5.90;1.70;;;;;;;;;;5093200;28;20472;-74
2021/12/20 00:51:29;;;;;;;2.47;1.30;;;;;;;;;;5093208;28;20111;-74
2021/12/20 00:53:55;;;;;;;2.65;1.38;;;;;;;;;;5093256;28;20095;-74
2021/12/20 00:56:21;;;;;;;3.95;1.30;;;;;;;;;;5093116;28;20111;-73
2021/12/20 00:58:47;;;;;;;2.75;1.33;;;;;;;;;;5091938;28;20032;-78
2021/12/20 01:01:14;;;;;;;4.57;1.23;;;;;;;;;;5092752;28;20473;-79
2021/12/20 01:03:40;;;;;;;4.43;1.70;;;;;;;;;;5093095;28;20028;-76
2021/12/20 01:06:06;;;;;;;9.63;1.77;;;;;;;;;;5093314;28;20032;-80
2021/12/20 01:08:36;;;;;;;6.18;1.92;;;;;;;;;;5093411;28;20049;-66
2021/12/20 01:11:02;;;;;;;3.90;1.40;;;;;;;;;;5093602;28;20028;-66
2021/12/20 01:13:30;;;;;;;3.08;1.50;;;;;;;;;;5092837;28;20016;-69
2021/12/20 01:16:00;;;;;;;3.45;1.20;;;;;;;;;;5092473;28;20441;-67
2021/12/20 01:18:26;;;;;;;4.72;1.35;;;;;;;;;;5092546;28;20024;-63
2021/12/20 01:20:52;;;;;;;2.50;1.20;;;;;;;;;;5091230;28;20024;-75
2021/12/20 01:23:18;;;;;;;3.55;1.48;;;;;;;;;;5091216;28;20380;-69
2021/12/20 01:25:45;;;;;;;2.83;1.17;;;;;;;;;;5091286;28;20020;-78
2021/12/20 01:28:12;;;;;;;3.45;1.55;;;;;;;;;;5092760;28;20696;-66
2021/12/20 01:30:40;;;;;;;3.17;1.60;;;;;;;;;;5091295;28;20028;-70
2021/12/20 01:33:11;;;;;;;3.83;1.10;;;;;;;;;;5092208;28;20020;-78
2021/12/20 01:35:37;;;;;;;3.92;1.10;;;;;;;;;;5092151;28;20025;-75
2021/12/20 01:38:04;;;;;;;4.60;1.02;;;;;;;;;;5082372;28;20101;-75
2021/12/20 01:40:31;;;;;;;2.78;1.30;;;;;;;;;;5071968;28;20052;-73
2021/12/20 01:42:58;;;;;;;2.33;1.00;;;;;;;;;;5072074;28;20029;-73
2021/12/20 01:45:25;;;;;;;5.35;1.13;;;;;;;;;;5070764;28;20021;-75
2021/12/20 01:48:01;;;;;;;4.13;1.30;;;;;;;;;;5071918;28;20539;-75
2021/12/20 01:53:25;;;;;;;3.50;1.20;;;;;;;;;;5051674;28;20035;-75
2021/12/20 01:55:52;;;;;;;4.60;1.00;;;;;;;;;;5071634;28;20071;-74
2021/12/20 01:58:18;;;;;;;2.90;0.90;;;;;;;;;;5071667;28;20071;-75
2021/12/20 02:03:30;;;;;;;2.20;0.90;;;;;;;;;;5071839;28;20526;-76
2021/12/20 02:05:58;;;;;;;3.25;1.10;;;;;;;;;;5071402;28;20388;-76
2021/12/20 02:08:28;;;;;;;2.72;1.15;;;;;;;;;;5079556;28;20021;-76
2021/12/20 02:10:57;;;;;;;2.03;0.90;;;;;;;;;;5091776;28;20016;-77
2021/12/20 02:13:24;;;;;;;4.20;1.10;;;;;;;;;;5090448;28;20154;-73
2021/12/20 02:15:51;;;;;;;2.15;1.02;;;;;;;;;;5091523;28;20040;-74
2021/12/20 02:18:17;;;;;;;3.28;0.90;;;;;;;;;;5089374;28;20521;-77
2021/12/20 02:20:44;;;;;;;1.77;0.90;;;;;;;;;;5070627;28;20056;-75
2021/12/20 02:23:10;;;;;;;1.13;0.70;;;;;;;;;;5071221;28;20363;-71
2021/12/20 02:25:37;;;;;;;2.47;1.00;;;;;;;;;;5071272;28;20021;-77
2021/12/20 02:28:05;;;;;;;0.88;0.60;;;;;;;;;;5071397;28;20095;-76
2021/12/20 02:38:30;;;;;;;2.40;1.00;;;;;;;;;;5084598;28;20046;-76
2021/12/20 02:41:02;;;;;;;4.30;0.90;;;;;;;;;;5091378;28;20669;-78
2021/12/20 02:43:29;;;;;;;4.20;1.10;;;;;;;;;;5076807;28;20112;-78
2021/12/20 02:46:02;;;;;;;1.45;0.90;;;;;;;;;;5071034;28;20181;-80
2021/12/20 02:48:28;;;;;;;1.85;0.95;;;;;;;;;;5071257;28;20643;-78
2021/12/20 02:50:55;;;;;;;5.93;0.98;;;;;;;;;;5071266;28;20068;-80
2021/12/20 02:53:21;;;;;;;1.23;0.70;;;;;;;;;;5071320;28;20024;-73
2021/12/20 02:55:47;;;;;;;5.15;0.90;;;;;;;;;;5071221;28;20029;-80
2021/12/20 02:58:13;;;;;;;1.60;0.90;;;;;;;;;;5070732;28;20035;-88
2021/12/20 03:00:39;;;;;;;2.78;0.95;;;;;;;;;;5071651;28;20027;-77
2021/12/20 03:03:06;;;;;;;2.53;0.93;;;;;;;;;;5071196;28;20025;-74
2021/12/20 03:05:32;;;;;;;1.48;0.88;;;;;;;;;;5070895;28;20419;-76
2021/12/20 03:07:59;;;;;;;3.17;0.90;;;;;;;;;;5071146;28;20035;-75
2021/12/20 03:10:27;;;;;;;2.97;0.90;;;;;;;;;;5070177;28;20424;-72
2021/12/20 03:12:54;;;;;;;2.38;0.90;;;;;;;;;;5091284;28;20538;-74
2021/12/20 03:15:24;;;;;;;2.05;0.98;;;;;;;;;;5090905;28;20064;-76
2021/12/20 03:17:52;;;;;;;1.60;0.85;;;;;;;;;;5091000;28;20028;-76
2021/12/20 03:20:20;;;;;;;1.77;0.80;;;;;;;;;;5089699;28;20480;-74
2021/12/20 03:22:46;;;;;;;2.97;1.08;;;;;;;;;;5091049;28;20020;-75
2021/12/20 03:25:13;;;;;;;2.70;0.90;;;;;;;;;;5091140;28;20061;-75
2021/12/20 03:27:39;;;;;;;1.02;0.60;;;;;;;;;;5091113;28;20071;-74
2021/12/20 03:30:06;;;;;;;2.75;0.82;;;;;;;;;;5089503;28;20031;-75
2021/12/20 03:32:32;;;;;;;2.53;1.00;;;;;;;;;;5094052;28;20080;-76
2021/12/20 03:34:58;;;;;;;1.92;0.80;;;;;;;;;;5094771;28;20020;-74
2021/12/20 03:37:25;;;;;;;1.15;0.70;;;;;;;;;;5094377;28;20035;-72
2021/12/20 03:39:51;;;;;;;1.60;0.70;;;;;;;;;;5094658;28;20021;-75
2021/12/20 03:42:19;;;;;;;2.03;0.80;;;;;;;;;;5094576;28;20032;-75
2021/12/20 03:44:45;;;;;;;2.63;0.90;;;;;;;;;;5094641;28;20024;-74
2021/12/20 03:47:13;;;;;;;3.35;1.00;;;;;;;;;;5093137;28;20028;-72
2021/12/20 03:49:40;;;;;;;1.83;0.80;;;;;;;;;;5094346;28;20020;-75
2021/12/20 03:52:07;;;;;;;1.85;0.73;;;;;;;;;;5094238;28;20047;-76
2021/12/20 03:54:33;;;;;;;2.83;0.90;;;;;;;;;;5092772;28;20023;-69
2021/12/20 03:56:59;;;;;;;1.45;0.70;;;;;;;;;;5094072;28;20043;-78
2021/12/20 03:59:28;;;;;;;3.72;1.00;;;;;;;;;;5094126;28;20051;-76
2021/12/20 04:01:54;;;;;;;2.17;0.77;;;;;;;;;;5094280;28;20016;-75
2021/12/20 04:04:20;;;;;;;1.80;0.90;;;;;;;;;;5092709;28;20050;-73
2021/12/20 04:06:46;;;;;;;1.35;0.60;;;;;;;;;;5094412;28;20382;-73
2021/12/20 04:09:12;;;;;;;1.17;0.60;;;;;;;;;;5094012;28;20020;-72
2021/12/20 04:11:38;;;;;;;1.80;0.73;;;;;;;;;;5094121;28;20107;-75
2021/12/20 04:14:04;;;;;;;1.60;0.77;;;;;;;;;;5094101;28;20019;-74
2021/12/20 04:16:30;;;;;;;1.30;0.60;;;;;;;;;;5093901;28;20058;-78
2021/12/20 04:18:56;;;;;;;2.28;0.80;;;;;;;;;;5093818;28;20016;-70
2021/12/20 04:21:22;;;;;;;1.65;0.70;;;;;;;;;;5093992;28;20055;-73
2021/12/20 04:23:49;;;;;;;4.20;1.27;;;;;;;;;;5093751;28;20028;-78
2021/12/20 04:26:15;;;;;;;3.00;0.80;;;;;;;;;;5093845;28;20035;-81
2021/12/20 04:28:41;;;;;;;1.48;0.77;;;;;;;;;;5093838;28;20035;-76
2021/12/20 04:31:08;;;;;;;1.77;0.60;;;;;;;;;;5093584;28;20031;-75
2021/12/20 04:33:34;;;;;;;2.80;0.75;;;;;;;;;;5093484;28;20027;-78
2021/12/20 04:36:00;;;;;;;1.27;0.55;;;;;;;;;;5093202;28;20032;-78
2021/12/20 04:38:29;;;;;;;3.85;0.80;;;;;;;;;;5091817;28;20073;-71
2021/12/20 04:40:55;;;;;;;1.38;0.55;;;;;;;;;;5093374;28;20491;-78
2021/12/20 04:43:21;;;;;;;1.95;0.70;;;;;;;;;;5092322;28;20024;-76
2021/12/20 04:45:47;;;;;;;4.25;0.90;;;;;;;;;;5093249;28;20039;-77
2021/12/20 04:48:13;;;;;;;2.38;0.70;;;;;;;;;;5093436;28;20113;-74
2021/12/20 04:50:39;;;;;;;4.75;1.20;;;;;;;;;;5092051;28;20028;-71
2021/12/20 04:53:06;;;;;;;2.92;1.00;;;;;;;;;;5093231;28;20073;-76
2021/12/20 04:55:33;;;;;;;2.58;0.90;;;;;;;;;;5093072;28;20492;-73
2021/12/20 04:57:59;;;;;;;1.38;0.65;;;;;;;;;;5091833;28;20032;-77
2021/12/20 05:00:27;;;;;;;2.70;1.30;;;;;;;;;;5092898;28;20483;-74
2021/12/20 05:02:53;;;;;;;3.20;0.88;;;;;;;;;;5092930;28;20472;-77
2021/12/20 05:05:21;;;;;;;5.15;0.80;;;;;;;;;;5092795;28;20415;-76
2021/12/20 05:07:47;;;;;;;2.75;1.00;;;;;;;;;;5092962;28;20024;-74
2021/12/20 05:10:24;;;;;;;1.50;0.70;;;;;;;;;;5092955;28;20464;-76
2021/12/20 05:12:51;;;;;;;3.95;1.00;;;;;;;;;;5092786;28;20437;-69
2021/12/20 05:15:17;;;;;;;2.63;0.90;;;;;;;;;;5091425;28;20489;-62
2021/12/20 05:17:43;;;;;;;1.65;0.75;;;;;;;;;;5092675;28;20032;-73
2021/12/20 05:20:09;;;;;;;2.65;0.85;;;;;;;;;;5092638;28;20012;-70
2021/12/20 05:22:36;;;;;;;2.72;0.90;;;;;;;;;;5091325;28;20055;-73
2021/12/20 05:25:02;;;;;;;3.70;1.15;;;;;;;;;;5091306;28;20614;-76
2021/12/20 05:27:28;;;;;;;3.20;1.10;;;;;;;;;;5091338;28;20032;-75
2021/12/20 05:29:54;;;;;;;3.35;1.10;;;;;;;;;;5092310;28;20107;-79
2021/12/20 05:32:21;;;;;;;4.18;1.02;;;;;;;;;;5091202;28;20047;-77
2021/12/20 05:34:47;;;;;;;3.15;1.10;;;;;;;;;;5092358;28;20024;-76
2021/12/20 05:37:15;;;;;;;2.88;1.17;;;;;;;;;;5090910;28;20042;-77
2021/12/20 05:39:41;;;;;;;3.72;1.00;;;;;;;;;;5092740;28;20044;-82
2021/12/20 05:42:08;;;;;;;3.58;0.90;;;;;;;;;;5090609;28;20714;-78
2021/12/20 05:44:35;;;;;;;5.32;1.20;;;;;;;;;;5078069;28;20024;-77
2021/12/20 05:47:01;;;;;;;2.33;0.98;;;;;;;;;;5092051;28;20499;-79
2021/12/20 05:49:27;;;;;;;2.88;0.90;;;;;;;;;;5091296;28;20028;-79
2021/12/20 05:51:53;;;;;;;3.13;0.95;;;;;;;;;;5091933;28;20078;-77
2021/12/20 05:54:19;;;;;;;3.58;1.33;;;;;;;;;;5091579;28;20460;-75
2021/12/20 05:56:45;;;;;;;3.33;1.10;;;;;;;;;;5091908;28;20039;-78
2021/12/20 05:59:11;;;;;;;4.20;1.40;;;;;;;;;;5091863;28;20020;-73
2021/12/20 06:01:37;;;;;;;7.53;1.30;;;;;;;;;;5091902;28;20062;-74
2021/12/20 06:04:04;;;;;;;6.63;1.85;;;;;;;;;;5091734;28;20024;-80
2021/12/20 06:06:31;;;;;;;4.63;1.42;;;;;;;;;;5091711;28;20028;-79
2021/12/20 06:08:58;;;;;;;3.65;1.40;;;;;;;;;;5091891;28;20357;-76
2021/12/20 06:11:24;;;;;;;5.72;1.35;;;;;;;;;;5091636;28;20115;-76
2021/12/20 06:13:51;;;;;;;2.28;0.93;;;;;;;;;;5091507;28;20085;-75
2021/12/20 06:16:17;;;;;;;4.45;1.40;;;;;;;;;;5090074;28;20078;-81
2021/12/20 06:18:43;;;;;;;4.03;1.10;;;;;;;;;;5090124;28;20020;-78
2021/12/20 06:21:09;;;;;;;3.83;1.10;;;;;;;;;;5090110;28;20047;-79
2021/12/20 06:23:35;;;;;;;11.48;1.38;;;;;;;;;;5089929;28;20448;-80
2021/12/20 06:26:02;;;;;;;4.53;1.33;;;;;;;;;;5090192;28;20032;-78
2021/12/20 06:28:29;;;;;;;4.20;1.33;;;;;;;;;;5090951;28;20020;-77
2021/12/20 06:30:55;;;;;;;3.30;1.42;;;;;;;;;;5090856;28;20024;-80
2021/12/20 06:33:21;;;;;;;5.15;1.15;;;;;;;;;;5091019;28;20031;-81
2021/12/20 06:35:47;;;;;;;6.25;1.48;;;;;;;;;;5090981;28;20059;-75
2021/12/20 06:38:19;;;;;;;4.45;1.40;;;;;;;;;;5089982;28;20078;-74
2021/12/20 06:40:45;;;;;;;6.23;1.80;;;;;;;;;;5087149;28;20525;-74
2021/12/20 06:43:11;;;;;;;6.38;1.67;;;;;;;;;;5090049;28;20028;-73
2021/12/20 06:45:38;;;;;;;4.63;1.30;;;;;;;;;;5091247;28;20032;-78
2021/12/20 06:48:04;;;;;;;3.25;1.10;;;;;;;;;;5091189;28;20263;-70
2021/12/20 06:50:31;;;;;;;3.85;1.25;;;;;;;;;;5090732;28;20162;-73
2021/12/20 06:52:57;;;;;;;4.03;1.65;;;;;;;;;;5088529;28;20024;-75
2021/12/20 06:55:23;;;;;;;4.03;1.48;;;;;;;;;;5087867;28;20492;-73
2021/12/20 06:57:50;;;;;;;3.60;1.20;;;;;;;;;;5089511;28;20388;-75
2021/12/20 07:00:16;;;;;;;8.23;1.30;;;;;;;;;;5081963;28;20096;-74
2021/12/20 07:02:42;;;;;;;2.95;1.30;;;;;;;;;;5090035;28;20491;-68
2021/12/20 07:05:08;;;;;;;2.35;1.13;;;;;;;;;;5086062;28;20024;-65
2021/12/20 07:07:35;;;;;;;5.55;1.48;;;;;;;;;;5093752;28;20095;-75
2021/12/20 07:10:02;;;;;;;3.65;1.52;;;;;;;;;;5094552;28;20097;-75
2021/12/20 07:12:29;;;;;;;5.05;1.60;;;;;;;;;;5094380;28;20051;-71
2021/12/20 07:14:55;;;;;;;3.10;1.30;;;;;;;;;;5094721;28;20131;-73
2021/12/20 07:17:21;;;;;;;5.00;1.38;;;;;;;;;;5094656;28;20040;-70
2021/12/20 07:19:48;;;;;;;3.35;1.38;;;;;;;;;;5094029;28;20065;-75
2021/12/20 07:22:14;;;;;;;5.88;1.42;;;;;;;;;;5093753;28;20480;-74
2021/12/20 07:24:40;;;;;;;5.80;1.20;;;;;;;;;;5094067;28;20107;-64
2021/12/20 07:27:07;;;;;;;8.93;1.52;;;;;;;;;;5093916;28;20031;-73
2021/12/20 07:29:33;;;;;;;3.20;1.45;;;;;;;;;;5094635;28;20024;-72
2021/12/20 07:31:59;;;;;;;4.15;1.45;;;;;;;;;;5094128;28;20409;-74
2021/12/20 07:34:25;;;;;;;4.68;1.65;;;;;;;;;;5094247;28;20026;-74
2021/12/20 07:36:53;;;;;;;4.80;1.70;;;;;;;;;;5092976;28;20036;-74
2021/12/20 07:39:19;;;;;;;3.75;1.30;;;;;;;;;;5092987;28;20457;-76
2021/12/20 07:41:46;;;;;;;7.15;1.75;;;;;;;;;;5094553;28;20099;-76
2021/12/20 07:44:12;;;;;;;2.95;1.40;;;;;;;;;;5094462;28;20027;-70
2021/12/20 07:46:38;;;;;;;4.05;1.42;;;;;;;;;;5094518;28;20016;-69
2021/12/20 07:49:05;;;;;;;4.38;1.25;;;;;;;;;;5094388;28;20035;-73
2021/12/20 07:51:31;;;;;;;5.82;1.60;;;;;;;;;;5094528;28;20028;-76
2021/12/20 07:53:57;;;;;;;4.45;1.67;;;;;;;;;;5094182;28;20023;-75
2021/12/20 07:56:23;;;;;;;4.13;1.50;;;;;;;;;;5094018;28;20028;-75
2021/12/20 07:58:49;;;;;;;3.95;1.30;;;;;;;;;;5094350;28;20032;-75
2021/12/20 08:01:16;;;;;;;7.35;1.95;;;;;;;;;;5094237;28;20473;-76
2021/12/20 08:03:43;;;;;;;3.65;1.60;;;;;;;;;;5094291;28;20103;-75
2021/12/20 08:06:09;;;;;;;4.88;1.50;;;;;;;;;;5094242;28;20024;-75
2021/12/20 08:08:36;;;;;;;3.58;1.30;;;;;;;;;;5094249;28;20024;-69
2021/12/20 08:11:02;;;;;;;4.10;1.50;;;;;;;;;;5092749;28;20028;-75
2021/12/20 08:13:28;;;;;;;4.65;1.65;;;;;;;;;;5092628;28;20020;-74
2021/12/20 08:15:55;;;;;;;3.38;1.40;;;;;;;;;;5092236;28;20051;-73
2021/12/20 08:18:21;;;;;;;5.25;1.48;;;;;;;;;;5092658;28;20077;-73
2021/12/20 08:20:47;;;;;;;4.30;1.70;;;;;;;;;;5093856;28;20028;-74
2021/12/20 08:23:13;;;;;;;4.75;1.65;;;;;;;;;;5092455;28;20027;-74
2021/12/20 08:25:40;;;;;;;5.60;1.60;;;;;;;;;;5093476;28;20027;-74
2021/12/20 08:28:07;;;;;;;5.45;1.88;;;;;;;;;;5092325;28;20024;-74
2021/12/20 08:30:33;;;;;;;5.35;1.45;;;;;;;;;;5093494;28;20032;-73
2021/12/20 08:33:00;;;;;;;3.97;1.35;;;;;;;;;;5092162;28;20487;-72
2021/12/20 08:35:26;;;;;;;6.45;1.45;;;;;;;;;;5093376;28;20028;-74
2021/12/20 08:37:53;;;;;;;4.10;1.40;;;;;;;;;;5085117;28;20082;-75
2021/12/20 08:40:20;;;;;;;3.95;1.75;;;;;;;;;;5072965;28;20119;-74
2021/12/20 08:42:46;;;;;;;4.18;1.45;;;;;;;;;;5073178;28;20052;-75
2021/12/20 08:45:13;;;;;;;8.10;1.70;;;;;;;;;;5073030;28;20500;-75
2021/12/20 08:47:39;;;;;;;3.75;1.50;;;;;;;;;;5073355;28;20530;-74
2021/12/20 08:50:08;;;;;;;4.35;1.55;;;;;;;;;;5073094;28;20025;-75
2021/12/20 08:52:34;;;;;;;6.05;1.70;;;;;;;;;;5072785;28;20020;-75
2021/12/20 08:55:00;;;;;;;4.97;1.40;;;;;;;;;;5073815;28;20436;-72
2021/12/20 08:57:26;;;;;;;5.28;1.45;;;;;;;;;;5092604;28;20036;-75
2021/12/20 08:59:52;;;;;;;8.27;1.65;;;;;;;;;;5093007;28;20469;-70
2021/12/20 09:02:18;;;;;;;5.72;1.60;;;;;;;;;;5093151;28;20472;-69
2021/12/20 09:04:44;;;;;;;4.32;1.30;;;;;;;;;;5093165;28;20146;-72
2021/12/20 09:07:15;;;;;;;3.42;1.23;;;;;;;;;;5092950;28;20016;-75
2021/12/20 09:09:44;;;;;;;4.70;1.38;;;;;;;;;;5093009;28;20375;-75
2021/12/20 09:12:10;;;;;;;4.88;1.13;;;;;;;;;;5092897;28;20020;-75
2021/12/20 09:14:36;;;;;;;3.35;1.00;;;;;;;;;;5092598;28;20044;-74
2021/12/20 09:17:03;;;;;;;8.90;1.50;;;;;;;;;;5092691;28;20059;-67
2021/12/20 09:19:29;;;;;;;3.85;1.40;;;;;;;;;;5092465;28;20023;-75
2021/12/20 09:21:55;;;;;;;4.65;1.40;;;;;;;;;;5092454;28;20016;-74
2021/12/20 09:24:22;;;;;;;3.55;1.08;;;;;;;;;;5092493;28;20032;-74
2021/12/20 09:26:48;;;;;;;3.20;1.30;;;;;;;;;;5091199;28;20111;-73
2021/12/20 09:29:14;;;;;;;4.78;1.33;;;;;;;;;;5092164;28;20016;-75
2021/12/20 09:31:40;;;;;;;4.47;1.48;;;;;;;;;;5092508;28;20024;-73
2021/12/20 09:34:06;;;;;;;4.47;1.40;;;;;;;;;;5092514;28;20024;-74
2021/12/20 09:36:33;;;;;;;2.97;1.20;;;;;;;;;;5092428;28;20043;-73
2021/12/20 09:39:00;;;;;;;5.43;1.52;;;;;;;;;;5075002;28;20016;-75
2021/12/20 09:44:05;;;;;;;6.07;1.27;;;;;;;;;;5092078;28;20036;-73
2021/12/20 09:46:32;;;;;;;2.60;1.08;;;;;;;;;;5091920;28;20452;-75
2021/12/20 09:48:58;;;;;;;3.78;1.13;;;;;;;;;;5092090;28;20065;-73
2021/12/20 09:51:24;;;;;;;3.63;1.40;;;;;;;;;;5090913;28;20111;-75
2021/12/20 09:53:50;;;;;;;4.55;1.40;;;;;;;;;;5092234;28;20489;-73
2021/12/20 09:56:18;;;;;;;4.55;1.20;;;;;;;;;;5091988;28;20039;-76
2021/12/20 09:58:47;;;;;;;4.22;1.20;;;;;;;;;;5091787;28;20051;-74
2021/12/20 10:01:13;;;;;;;4.45;1.10;;;;;;;;;;5088958;28;20028;-73
2021/12/20 10:03:40;;;;;;;2.80;1.15;;;;;;;;;;5090835;28;20086;-73
2021/12/20 10:06:07;;;;;;;4.60;1.38;;;;;;;;;;5087390;28;20145;-71
2021/12/20 10:08:35;;;;;;;3.13;1.15;;;;;;;;;;5088203;28;20103;-75
2021/12/20 10:11:03;;;;;;;2.42;0.90;;;;;;;;;;5090844;28;20480;-74
2021/12/20 10:13:34;;;;;;;4.78;0.90;;;;;;;;;;5090207;28;20027;-73
2021/12/20 10:16:01;;;;;;;4.45;1.10;;;;;;;;;;5088794;28;20169;-73
2021/12/20 10:18:27;;;;;;;4.22;1.25;;;;;;;;;;5090172;28;20020;-64
2021/12/20 10:20:59;;;;;;;5.07;1.30;;;;;;;;;;5087876;28;20058;-75
2021/12/20 10:23:27;;;;;;;2.80;0.90;;;;;;;;;;5088639;28;20028;-79
2021/12/20 10:26:05;;;;;;;4.05;1.20;;;;;;;;;;5090927;28;20020;-80
2021/12/20 10:28:33;;;;;;;3.75;1.33;;;;;;;;;;5085665;28;20100;-72
2021/12/20 10:31:06;;;;;;;2.88;0.98;;;;;;;;;;5089831;28;20024;-74
2021/12/20 10:33:31;;;;;;;;;;;;;;;;;;5088465;28;20066;-69
2021/12/20 10:35:59;;;;;;;2.92;1.00;;;;;;;;;;5088290;28;19907;-79
2021/12/20 10:38:25;;;;;;;2.90;1.13;;;;;;;;;;5089651;28;20111;-72
2021/12/20 10:41:06;;;;;;;4.93;0.98;;;;;;;;;;5089016;28;20050;-68
2021/12/20 10:43:41;;;;;;;4.95;1.40;;;;;;;;;;5089439;28;20453;-78
2021/12/20 10:46:26;;;;;;;3.35;1.05;;;;;;;;;;5091154;28;20020;-85
2021/12/20 10:48:59;;;;;;;4.03;1.17;;;;;;;;;;5088108;28;20024;-77
2021/12/20 10:51:27;;;;;;;10.05;1.67;;;;;;;;;;5083124;28;20035;-77
2021/12/20 10:53:57;;;;;;;5.45;1.13;;;;;;;;;;5090438;28;20013;-75
2021/12/20 10:56:23;;;;;;;8.02;1.60;;;;;;;;;;5089567;28;20024;-76
2021/12/20 10:58:50;;;;;;;6.85;1.13;;;;;;;;;;5090473;28;20024;-76
2021/12/20 11:01:42;;;;;;;5.38;1.23;;;;;;;;;;5090417;28;20357;-75
2021/12/20 11:04:07;;;;;;;8.00;1.52;;;;;;;;;;5090474;28;20036;-78
2021/12/20 11:09:19;;;;;;;7.70;1.20;;;;;;;;;;5090950;28;20035;-75
2021/12/20 11:11:48;;;;;;;2.85;1.00;;;;;;;;;;5089298;28;20032;-75
2021/12/20 11:14:15;;;;;;;3.15;1.00;;;;;;;;;;5088585;28;20024;-72
2021/12/20 11:16:43;;;;;;;6.75;1.10;;;;;;;;;;5090240;28;20040;-74
2021/12/20 11:19:15;;;;;;;5.28;0.93;;;;;;;;;;5090331;28;20024;-72
2021/12/20 11:21:47;;;;;;;3.55;1.17;;;;;;;;;;5077637;28;20012;-75
2021/12/20 11:24:15;;;;;;;5.05;0.93;;;;;;;;;;5090356;28;20050;-73
2021/12/20 11:26:41;;;;;;;2.92;0.90;;;;;;;;;;5090389;28;20013;-69
2021/12/20 11:29:07;;;;;;;5.53;1.50;;;;;;;;;;5090475;28;20049;-72
2021/12/20 11:31:33;;;;;;;8.70;1.50;;;;;;;;;;5087668;28;20030;-68
2021/12/20 11:34:00;;;;;;;4.05;1.20;;;;;;;;;;5089304;28;20066;-74
2021/12/20 11:36:26;;;;;;;5.63;1.00;;;;;;;;;;5090129;28;20131;-72
2021/12/20 11:38:53;;;;;;;6.00;1.38;;;;;;;;;;5090301;28;20471;-78
2021/12/20 11:41:19;;;;;;;7.82;1.30;;;;;;;;;;5090366;28;20028;-78
2021/12/20 11:43:46;;;;;;;5.13;1.08;;;;;;;;;;5090634;28;20077;-76
2021/12/20 11:46:13;;;;;;;4.82;1.02;;;;;;;;;;5089072;28;20024;-76
2021/12/20 11:48:39;;;;;;;60.03;12.98;;;;;;;;;;5090053;28;20024;-78
2021/12/20 11:51:06;;;;;;;51.75;13.38;;;;;;;;;;5087976;28;20492;-76
2021/12/20 11:53:36;;;;;;;43.03;10.52;;;;;;;;;;5090852;28;20027;-76
2021/12/20 11:56:03;;;;;;;33.70;9.27;;;;;;;;;;5092341;28;20028;-73
2021/12/20 11:58:30;;;;;;;30.23;8.48;;;;;;;;;;5092121;28;20109;-64
2021/12/20 12:00:56;;;;;;;32.85;9.32;;;;;;;;;;5093085;28;20057;-71
2021/12/20 12:03:28;;;;;;;25.75;7.72;;;;;;;;;;5099648;28;20080;-68
2021/12/20 12:05:56;;;;;;;27.20;7.40;;;;;;;;;;5095443;28;20349;-78
2021/12/20 12:08:28;;;;;;;33.50;7.85;;;;;;;;;;5093742;28;20074;-77
2021/12/20 12:10:57;;;;;;;27.85;7.20;;;;;;;;;;5093801;28;20024;-77
2021/12/20 12:13:26;;;;;;;25.27;6.32;;;;;;;;;;5094141;28;20048;-76
2021/12/20 12:16:00;;;;;;;23.02;6.72;;;;;;;;;;5093148;28;20064;-67
2021/12/20 12:18:45;;;;;;;19.88;5.47;;;;;;;;;;5092498;28;20024;-73
2021/12/20 12:21:29;;;;;;;19.25;5.75;;;;;;;;;;5094135;28;20028;-77
2021/12/20 12:23:55;;;;;;;18.60;4.68;;;;;;;;;;5095356;28;20039;-68
2021/12/20 12:26:32;;;;;;;24.58;5.30;;;;;;;;;;5103156;28;20101;-73
2021/12/20 12:28:59;;;;;;;15.70;4.20;;;;;;;;;;5095604;28;20078;-79
2021/12/20 12:31:26;;;;;;;17.80;4.80;;;;;;;;;;5092462;28;20375;-79
2021/12/20 12:34:11;;;;;;;14.25;4.25;;;;;;;;;;5094091;28;20024;-81
2021/12/20 12:36:40;;;;;;;14.40;4.78;;;;;;;;;;5093678;28;20042;-78
2021/12/20 12:39:24;;;;;;;16.35;5.20;;;;;;;;;;5092786;28;20020;-73
2021/12/20 12:41:57;;;;;;;11.52;3.40;;;;;;;;;;5090029;28;20077;-80
2021/12/20 12:44:28;;;;;;;10.02;3.20;;;;;;;;;;5092816;28;20447;-79
2021/12/20 12:46:54;;;;;;;13.90;3.10;;;;;;;;;;5093390;28;20472;-72
2021/12/20 12:49:20;;;;;;;10.68;3.08;;;;;;;;;;5093135;28;20031;-75
2021/12/20 12:51:46;;;;;;;15.52;3.58;;;;;;;;;;5093426;28;20052;-77
2021/12/20 12:54:32;;;;;;;11.88;3.80;;;;;;;;;;5091724;28;20079;-71
2021/12/20 12:57:21;;;;;;;22.98;4.75;;;;;;;;;;5091444;28;20134;-80
2021/12/20 12:59:52;;;;;;;15.32;4.05;;;;;;;;;;5070246;28;20115;-81
2021/12/20 13:02:24;;;;;;;11.95;3.40;;;;;;;;;;5079881;28;20024;-67
2021/12/20 13:05:05;;;;;;;17.05;3.90;;;;;;;;;;5093672;28;20012;-71
2021/12/20 13:07:35;;;;;;;11.35;3.17;;;;;;;;;;5093429;28;20031;-76
2021/12/20 13:10:04;;;;;;;13.50;3.78;;;;;;;;;;5091973;28;20549;-75
2021/12/20 13:16:05;;;;;;;70.32;5.95;;;;;;;;;;5092694;28;20040;-81
2021/12/20 13:17:59;;;;;;;128.32;9.32;;;;;;;;;;5087655;28;20078;-71
2021/12/20 13:20:35;;;;;;;102.40;8.50;;;;;;;;;;5092557;28;20028;-78
2021/12/20 13:23:04;;;;;;;89.75;8.63;;;;;;;;;;5092271;28;20028;-85
2021/12/20 13:25:39;;;;;;;72.35;6.47;;;;;;;;;;5093001;28;20012;-79
2021/12/20 13:28:07;;;;;;;50.90;5.78;;;;;;;;;;5091579;28;20609;-80
2021/12/20 13:30:36;;;;;;;50.38;5.88;;;;;;;;;;5092833;28;20023;-83
2021/12/20 13:33:02;;;;;;;30.00;2.80;;;;;;;;;;5086110;28;20033;-81
2021/12/20 13:35:29;;;;;;;35.90;3.88;;;;;;;;;;5071823;28;20013;-81
2021/12/20 13:38:14;;;;;;;29.25;3.45;;;;;;;;;;5080767;28;20031;-81
2021/12/20 13:40:52;;;;;;;24.05;3.75;;;;;;;;;;5092683;28;20047;-76
2021/12/20 13:43:25;;;;;;;35.85;4.38;;;;;;;;;;5092765;28;20028;-73
2021/12/20 13:46:11;;;;;;;40.03;3.35;;;;;;;;;;5093167;28;20024;-82
2021/12/20 13:48:45;;;;;;;26.50;3.35;;;;;;;;;;5092775;28;20080;-81
2021/12/20 13:51:11;;;;;;;28.08;3.17;;;;;;;;;;5079156;28;20107;-75
2021/12/20 13:53:37;;;;;;;18.08;2.88;;;;;;;;;;5071201;28;20078;-71
2021/12/20 13:56:04;;;;;;;21.15;2.92;;;;;;;;;;5072086;28;20108;-76
2021/12/20 13:58:31;;;;;;;32.63;3.00;;;;;;;;;;5072320;28;20059;-80
2021/12/20 14:00:58;;;;;;;19.42;2.35;;;;;;;;;;5072679;28;20472;-79
2021/12/20 14:03:24;;;;;;;16.70;2.15;;;;;;;;;;5072530;28;20060;-79
2021/12/20 14:05:51;;;;;;;18.92;2.22;;;;;;;;;;5073051;28;20025;-86
2021/12/20 14:08:21;;;;;;;17.92;2.13;;;;;;;;;;5072753;28;20023;-84
2021/12/20 14:10:48;;;;;;;11.68;1.90;;;;;;;;;;5071744;28;20027;-78
2021/12/20 14:13:19;;;;;;;12.30;2.15;;;;;;;;;;5072751;28;20016;-85
2021/12/20 14:15:46;;;;;;;15.75;1.90;;;;;;;;;;5072681;28;20509;-84
2021/12/20 14:18:15;;;;;;;13.13;1.95;;;;;;;;;;5072830;28;20036;-81
2021/12/20 14:20:42;;;;;;;10.15;1.67;;;;;;;;;;5072493;28;20086;-83
2021/12/20 14:23:29;;;;;;;14.23;2.10;;;;;;;;;;5070956;28;20392;-72
2021/12/20 14:26:03;;;;;;;10.63;2.10;;;;;;;;;;5064340;28;20043;-79
2021/12/20 14:28:30;;;;;;;12.07;1.92;;;;;;;;;;5072421;28;20543;-78
2021/12/20 14:31:19;;;;;;;13.40;1.80;;;;;;;;;;5072516;28;20107;-81
2021/12/20 14:33:50;;;;;;;11.45;1.70;;;;;;;;;;5066327;28;20044;-74
2021/12/20 14:36:17;;;;;;;9.18;1.65;;;;;;;;;;5072164;28;20035;-78
2021/12/20 14:38:43;;;;;;;9.65;1.50;;;;;;;;;;5071866;28;20489;-77
2021/12/20 14:41:30;;;;;;;9.15;1.75;;;;;;;;;;5070648;28;20040;-76
2021/12/20 14:43:59;;;;;;;8.23;1.33;;;;;;;;;;5072109;28;20036;-84
2021/12/20 14:46:33;;;;;;;6.20;1.13;;;;;;;;;;5071709;28;20017;-83
2021/12/20 14:49:13;;;;;;;7.72;2.15;;;;;;;;;;5070607;28;20117;-81
2021/12/20 14:51:39;;;;;;;5.45;1.80;;;;;;;;;;5072213;28;20017;-81
2021/12/20 14:54:19;;;;;;;5.88;1.10;;;;;;;;;;5071952;28;20020;-75
2021/12/20 14:56:59;;;;;;;5.97;1.38;;;;;;;;;;5071676;28;20039;-80
2021/12/20 14:59:26;;;;;;;7.00;1.85;;;;;;;;;;5072199;28;20025;-81
2021/12/20 15:01:53;;;;;;;6.90;1.52;;;;;;;;;;5072936;28;20078;-79
2021/12/20 15:04:19;;;;;;;4.45;1.80;;;;;;;;;;5073006;28;20017;-75
2021/12/20 15:06:47;;;;;;;4.45;1.30;;;;;;;;;;5070988;28;20082;-79
2021/12/20 15:09:14;;;;;;;6.40;1.67;;;;;;;;;;5071168;28;20473;-72